sensor_id;sensor_type;location;lat;lon;timestamp;pressure;altitude;pressure_sealevel;temperature;humidity
19831;BME280;10076;52.008;4.708;2022-07-10T00:00:05;102841.78;;;18.56;100.00
19831;BME280;10076;52.008;4.708;2022-07-10T00:02:31;102836.66;;;18.40;100.00
19831;BME280;10076;52.008;4.708;2022-07-10T00:04:56;102837.38;;;18.55;100.00
19831;BME280;10076;52.008;4.708;2022-07-10T00:07:21;102840.97;;;18.43;100.00
19831;BME280;10076;52.008;4.708;2022-07-10T00:09:47;102837.72;;;18.38;100.00
19831;BME280;10076;52.008;4.708;2022-07-10T00:12:12;102835.47;;;18.57;100.00
19831;BME280;10076;52.008;4.708;2022-07-10T00:14:37;102840.50;;;18.61;100.00
19831;BME280;10076;52.008;4.708;2022-07-10T00:17:03;102828.88;;;18.73;100.00
19831;BME280;10076;52.008;4.708;2022-07-10T00:19:28;102831.00;;;18.45;100.00
19831;BME280;10076;52.008;4.708;2022-07-10T00:21:53;102825.34;;;18.24;100.00
19831;BME280;10076;52.008;4.708;2022-07-10T00:24:18;102821.06;;;18.09;100.00
19831;BME280;10076;52.008;4.708;2022-07-10T00:26:44;102825.66;;;18.20;100.00
19831;BME280;10076;52.008;4.708;2022-07-10T00:29:09;102827.91;;;18.38;100.00
19831;BME280;10076;52.008;4.708;2022-07-10T00:31:34;102823.41;;;18.39;100.00
19831;BME280;10076;52.008;4.708;2022-07-10T00:34:00;102817.44;;;18.23;100.00
19831;BME280;10076;52.008;4.708;2022-07-10T00:36:25;102811.84;;;18.13;100.00
19831;BME280;10076;52.008;4.708;2022-07-10T00:38:50;102819.56;;;18.30;100.00
19831;BME280;10076;52.008;4.708;2022-07-10T00:41:16;102815.53;;;18.25;100.00
19831;BME280;10076;52.008;4.708;2022-07-10T00:44:01;102811.00;;;18.13;100.00
19831;BME280;10076;52.008;4.708;2022-07-10T00:46:27;102812.16;;;18.09;100.00
19831;BME280;10076;52.008;4.708;2022-07-10T00:48:53;102806.94;;;18.07;100.00
19831;BME280;10076;52.008;4.708;2022-07-10T00:51:20;102804.59;;;18.15;100.00
19831;BME280;10076;52.008;4.708;2022-07-10T00:53:47;102802.75;;;18.16;100.00
19831;BME280;10076;52.008;4.708;2022-07-10T00:56:18;102805.91;;;18.22;100.00
19831;BME280;10076;52.008;4.708;2022-07-10T00:58:45;102810.38;;;18.09;100.00
19831;BME280;10076;52.008;4.708;2022-07-10T01:01:11;102810.56;;;18.06;100.00
19831;BME280;10076;52.008;4.708;2022-07-10T01:03:36;102811.66;;;18.16;100.00
19831;BME280;10076;52.008;4.708;2022-07-10T01:06:02;102814.84;;;18.09;100.00
19831;BME280;10076;52.008;4.708;2022-07-10T01:08:28;102805.88;;;17.98;100.00
19831;BME280;10076;52.008;4.708;2022-07-10T01:10:53;102812.09;;;17.86;100.00
19831;BME280;10076;52.008;4.708;2022-07-10T01:13:19;102807.38;;;17.89;100.00
19831;BME280;10076;52.008;4.708;2022-07-10T01:15:45;102812.69;;;17.77;100.00
19831;BME280;10076;52.008;4.708;2022-07-10T01:18:12;102808.66;;;17.71;100.00
19831;BME280;10076;52.008;4.708;2022-07-10T01:20:37;102809.50;;;17.72;100.00
19831;BME280;10076;52.008;4.708;2022-07-10T01:23:02;102804.16;;;17.72;100.00
19831;BME280;10076;52.008;4.708;2022-07-10T01:25:28;102798.81;;;17.72;100.00
19831;BME280;10076;52.008;4.708;2022-07-10T01:27:53;102804.69;;;17.64;100.00
19831;BME280;10076;52.008;4.708;2022-07-10T01:30:19;102798.41;;;17.90;100.00
19831;BME280;10076;52.008;4.708;2022-07-10T01:32:46;102791.88;;;17.82;100.00
19831;BME280;10076;52.008;4.708;2022-07-10T01:35:11;102793.47;;;17.59;100.00
19831;BME280;10076;52.008;4.708;2022-07-10T01:37:38;102794.09;;;17.63;100.00
19831;BME280;10076;52.008;4.708;2022-07-10T01:40:04;102792.81;;;17.56;100.00
19831;BME280;10076;52.008;4.708;2022-07-10T01:42:29;102786.41;;;17.58;100.00
19831;BME280;10076;52.008;4.708;2022-07-10T01:44:54;102787.88;;;17.62;100.00
19831;BME280;10076;52.008;4.708;2022-07-10T01:47:20;102785.78;;;17.67;100.00
19831;BME280;10076;52.008;4.708;2022-07-10T01:49:49;102783.19;;;17.66;100.00
19831;BME280;10076;52.008;4.708;2022-07-10T01:52:15;102779.34;;;17.57;100.00
19831;BME280;10076;52.008;4.708;2022-07-10T01:54:40;102778.69;;;17.54;100.00
19831;BME280;10076;52.008;4.708;2022-07-10T01:57:05;102781.28;;;17.55;100.00
19831;BME280;10076;52.008;4.708;2022-07-10T01:59:31;102777.19;;;17.50;100.00
19831;BME280;10076;52.008;4.708;2022-07-10T02:01:56;102772.69;;;17.50;100.00
19831;BME280;10076;52.008;4.708;2022-07-10T02:04:21;102782.53;;;17.62;100.00
19831;BME280;10076;52.008;4.708;2022-07-10T02:07:05;102772.69;;;17.50;100.00
19831;BME280;10076;52.008;4.708;2022-07-10T02:09:30;102774.88;;;17.58;100.00
19831;BME280;10076;52.008;4.708;2022-07-10T02:11:55;102777.41;;;17.72;100.00
19831;BME280;10076;52.008;4.708;2022-07-10T02:14:21;102782.53;;;17.62;100.00
19831;BME280;10076;52.008;4.708;2022-07-10T02:16:46;102793.69;;;17.69;100.00
19831;BME280;10076;52.008;4.708;2022-07-10T02:19:11;102788.00;;;17.61;100.00
19831;BME280;10076;52.008;4.708;2022-07-10T02:21:36;102791.00;;;17.69;100.00
19831;BME280;10076;52.008;4.708;2022-07-10T02:24:02;102780.63;;;17.64;100.00
19831;BME280;10076;52.008;4.708;2022-07-10T02:26:27;102774.63;;;17.48;100.00
19831;BME280;10076;52.008;4.708;2022-07-10T02:28:53;102778.91;;;17.63;100.00
19831;BME280;10076;52.008;4.708;2022-07-10T02:31:18;102786.63;;;17.68;100.00
19831;BME280;10076;52.008;4.708;2022-07-10T02:33:43;102776.34;;;17.74;100.00
19831;BME280;10076;52.008;4.708;2022-07-10T02:36:09;102764.72;;;17.63;100.00
19831;BME280;10076;52.008;4.708;2022-07-10T02:38:34;102762.47;;;17.69;100.00
19831;BME280;10076;52.008;4.708;2022-07-10T02:41:00;102762.25;;;17.85;100.00
19831;BME280;10076;52.008;4.708;2022-07-10T02:43:25;102753.38;;;17.84;100.00
19831;BME280;10076;52.008;4.708;2022-07-10T02:45:51;102763.81;;;18.12;100.00
19831;BME280;10076;52.008;4.708;2022-07-10T02:48:16;102769.19;;;18.24;100.00
19831;BME280;10076;52.008;4.708;2022-07-10T02:50:43;102771.66;;;18.27;100.00
19831;BME280;10076;52.008;4.708;2022-07-10T02:53:08;102766.50;;;18.24;100.00
19831;BME280;10076;52.008;4.708;2022-07-10T02:55:34;102770.88;;;18.25;100.00
19831;BME280;10076;52.008;4.708;2022-07-10T02:57:59;102778.50;;;18.19;100.00
19831;BME280;10076;52.008;4.708;2022-07-10T03:00:25;102778.28;;;18.09;100.00
19831;BME280;10076;52.008;4.708;2022-07-10T03:02:51;102770.50;;;18.19;100.00
19831;BME280;10076;52.008;4.708;2022-07-10T03:05:17;102763.53;;;17.92;100.00
19831;BME280;10076;52.008;4.708;2022-07-10T03:07:42;102750.50;;;17.75;100.00
19831;BME280;10076;52.008;4.708;2022-07-10T03:10:09;102760.41;;;17.85;100.00
19831;BME280;10076;52.008;4.708;2022-07-10T03:12:34;102765.16;;;17.82;100.00
19831;BME280;10076;52.008;4.708;2022-07-10T03:14:59;102766.94;;;17.81;100.00
19831;BME280;10076;52.008;4.708;2022-07-10T03:17:25;102758.94;;;17.81;100.00
19831;BME280;10076;52.008;4.708;2022-07-10T03:19:51;102751.75;;;17.94;100.00
19831;BME280;10076;52.008;4.708;2022-07-10T03:22:17;102756.38;;;17.80;100.00
19831;BME280;10076;52.008;4.708;2022-07-10T03:24:42;102750.91;;;17.81;100.00
19831;BME280;10076;52.008;4.708;2022-07-10T03:27:11;102756.50;;;17.78;100.00
19831;BME280;10076;52.008;4.708;2022-07-10T03:29:36;102754.13;;;17.86;100.00
19831;BME280;10076;52.008;4.708;2022-07-10T03:32:02;102748.53;;;18.01;100.00
19831;BME280;10076;52.008;4.708;2022-07-10T03:34:27;102750.25;;;18.02;100.00
19831;BME280;10076;52.008;4.708;2022-07-10T03:36:53;102749.81;;;18.08;100.00
19831;BME280;10076;52.008;4.708;2022-07-10T03:39:18;102744.03;;;18.14;100.00
19831;BME280;10076;52.008;4.708;2022-07-10T03:41:43;102748.63;;;18.12;100.00
19831;BME280;10076;52.008;4.708;2022-07-10T03:44:09;102746.41;;;18.19;100.00
19831;BME280;10076;52.008;4.708;2022-07-10T03:46:34;102749.81;;;18.08;100.00
19831;BME280;10076;52.008;4.708;2022-07-10T03:48:59;102735.03;;;18.28;100.00
19831;BME280;10076;52.008;4.708;2022-07-10T03:51:25;102747.00;;;18.35;100.00
19831;BME280;10076;52.008;4.708;2022-07-10T03:53:50;102748.94;;;18.33;100.00
19831;BME280;10076;52.008;4.708;2022-07-10T03:56:15;102747.00;;;18.35;100.00
19831;BME280;10076;52.008;4.708;2022-07-10T03:59:00;102737.91;;;18.37;100.00
19831;BME280;10076;52.008;4.708;2022-07-10T04:01:26;102743.38;;;18.36;100.00
19831;BME280;10076;52.008;4.708;2022-07-10T04:03:51;102746.25;;;18.45;100.00
19831;BME280;10076;52.008;4.708;2022-07-10T04:06:16;102744.97;;;18.62;100.00
19831;BME280;10076;52.008;4.708;2022-07-10T04:08:41;102735.19;;;18.50;100.00
19831;BME280;10076;52.008;4.708;2022-07-10T04:11:07;102720.31;;;18.69;100.00
19831;BME280;10076;52.008;4.708;2022-07-10T04:13:32;102721.00;;;18.60;100.00
19831;BME280;10076;52.008;4.708;2022-07-10T04:15:57;102718.19;;;18.74;100.00
19831;BME280;10076;52.008;4.708;2022-07-10T04:18:22;102717.75;;;18.68;100.00
19831;BME280;10076;52.008;4.708;2022-07-10T04:20:48;102726.81;;;18.54;100.00
19831;BME280;10076;52.008;4.708;2022-07-10T04:23:13;102730.97;;;18.81;100.00
19831;BME280;10076;52.008;4.708;2022-07-10T04:25:38;102727.81;;;18.76;100.00
19831;BME280;10076;52.008;4.708;2022-07-10T04:28:04;102731.47;;;18.63;100.00
19831;BME280;10076;52.008;4.708;2022-07-10T04:30:29;102730.31;;;18.67;100.00
19831;BME280;10076;52.008;4.708;2022-07-10T04:32:54;102741.97;;;18.66;100.00
19831;BME280;10076;52.008;4.708;2022-07-10T04:35:19;102738.44;;;18.89;100.00
19831;BME280;10076;52.008;4.708;2022-07-10T04:37:45;102739.53;;;18.86;100.00
19831;BME280;10076;52.008;4.708;2022-07-10T04:40:11;102746.81;;;18.84;100.00
19831;BME280;10076;52.008;4.708;2022-07-10T04:42:37;102753.19;;;18.94;100.00
19831;BME280;10076;52.008;4.708;2022-07-10T04:45:02;102749.38;;;18.86;100.00
19831;BME280;10076;52.008;4.708;2022-07-10T04:47:27;102748.19;;;18.90;100.00
19831;BME280;10076;52.008;4.708;2022-07-10T04:49:53;102748.13;;;18.79;100.00
19831;BME280;10076;52.008;4.708;2022-07-10T04:52:18;102751.47;;;18.93;100.00
19831;BME280;10076;52.008;4.708;2022-07-10T04:54:43;102753.28;;;18.93;100.00
19831;BME280;10076;52.008;4.708;2022-07-10T04:57:09;102756.72;;;18.95;100.00
19831;BME280;10076;52.008;4.708;2022-07-10T04:59:34;102763.28;;;18.91;100.00
19831;BME280;10076;52.008;4.708;2022-07-10T05:02:00;102752.16;;;18.84;100.00
19831;BME280;10076;52.008;4.708;2022-07-10T05:04:25;102753.19;;;18.94;100.00
19831;BME280;10076;52.008;4.708;2022-07-10T05:06:50;102760.03;;;18.98;100.00
19831;BME280;10076;52.008;4.708;2022-07-10T05:09:15;102755.34;;;18.89;100.00
19831;BME280;10076;52.008;4.708;2022-07-10T05:11:41;102761.31;;;18.93;100.00
19831;BME280;10076;52.008;4.708;2022-07-10T05:14:06;102765.38;;;18.98;100.00
19831;BME280;10076;52.008;4.708;2022-07-10T05:16:31;102764.91;;;19.04;100.00
19831;BME280;10076;52.008;4.708;2022-07-10T05:18:56;102765.34;;;19.11;100.00
19831;BME280;10076;52.008;4.708;2022-07-10T05:21:22;102763.41;;;19.13;100.00
19831;BME280;10076;52.008;4.708;2022-07-10T05:23:47;102762.69;;;19.22;100.00
19831;BME280;10076;52.008;4.708;2022-07-10T05:26:12;102762.00;;;19.31;100.00
19831;BME280;10076;52.008;4.708;2022-07-10T05:28:38;102755.56;;;19.33;100.00
19831;BME280;10076;52.008;4.708;2022-07-10T05:31:03;102756.66;;;19.31;100.00
19831;BME280;10076;52.008;4.708;2022-07-10T05:33:28;102756.53;;;19.32;100.00
19831;BME280;10076;52.008;4.708;2022-07-10T05:35:54;102758.75;;;19.49;100.00
19831;BME280;10076;52.008;4.708;2022-07-10T05:38:20;102757.03;;;19.48;100.00
19831;BME280;10076;52.008;4.708;2022-07-10T05:40:45;102754.78;;;19.65;100.00
19831;BME280;10076;52.008;4.708;2022-07-10T05:43:10;102752.31;;;19.62;100.00
19831;BME280;10076;52.008;4.708;2022-07-10T05:45:37;102745.25;;;19.61;100.00
19831;BME280;10076;52.008;4.708;2022-07-10T05:48:02;102745.28;;;19.72;100.00
19831;BME280;10076;52.008;4.708;2022-07-10T05:50:28;102752.59;;;19.92;100.00
19831;BME280;10076;52.008;4.708;2022-07-10T05:52:53;102738.59;;;20.11;100.00
19831;BME280;10076;52.008;4.708;2022-07-10T05:55:18;102742.50;;;20.07;100.00
19831;BME280;10076;52.008;4.708;2022-07-10T05:57:44;102747.25;;;20.03;100.00
19831;BME280;10076;52.008;4.708;2022-07-10T06:00:09;102746.41;;;20.13;100.00
19831;BME280;10076;52.008;4.708;2022-07-10T06:02:35;102745.53;;;20.35;100.00
19831;BME280;10076;52.008;4.708;2022-07-10T06:05:00;102743.25;;;20.09;100.00
19831;BME280;10076;52.008;4.708;2022-07-10T06:07:26;102737.63;;;20.12;100.00
19831;BME280;10076;52.008;4.708;2022-07-10T06:09:52;102748.13;;;20.25;100.00
19831;BME280;10076;52.008;4.708;2022-07-10T06:12:18;102739.31;;;20.23;100.00
19831;BME280;10076;52.008;4.708;2022-07-10T06:14:43;102739.09;;;20.15;100.00
19831;BME280;10076;52.008;4.708;2022-07-10T06:17:08;102740.91;;;20.48;100.00
19831;BME280;10076;52.008;4.708;2022-07-10T06:19:34;102742.31;;;20.63;100.00
19831;BME280;10076;52.008;4.708;2022-07-10T06:21:59;102744.38;;;20.59;100.00
19831;BME280;10076;52.008;4.708;2022-07-10T06:24:43;102747.16;;;20.69;100.00
19831;BME280;10076;52.008;4.708;2022-07-10T06:27:08;102747.31;;;20.78;100.00
19831;BME280;10076;52.008;4.708;2022-07-10T06:29:34;102752.81;;;20.77;100.00
19831;BME280;10076;52.008;4.708;2022-07-10T06:31:59;102746.53;;;20.87;100.00
19831;BME280;10076;52.008;4.708;2022-07-10T06:34:24;102751.47;;;21.02;100.00
19831;BME280;10076;52.008;4.708;2022-07-10T06:36:50;102748.97;;;20.90;100.00
19831;BME280;10076;52.008;4.708;2022-07-10T06:39:15;102742.91;;;20.77;100.00
19831;BME280;10076;52.008;4.708;2022-07-10T06:41:40;102753.88;;;20.63;100.00
19831;BME280;10076;52.008;4.708;2022-07-10T06:44:05;102743.06;;;20.43;100.00
19831;BME280;10076;52.008;4.708;2022-07-10T06:46:31;102753.97;;;20.30;100.00
19831;BME280;10076;52.008;4.708;2022-07-10T06:48:57;102751.44;;;20.18;100.00
19831;BME280;10076;52.008;4.708;2022-07-10T06:51:23;102745.69;;;20.33;100.00
19831;BME280;10076;52.008;4.708;2022-07-10T06:53:48;102754.41;;;20.46;100.00
19831;BME280;10076;52.008;4.708;2022-07-10T06:56:14;102752.72;;;20.34;100.00
19831;BME280;10076;52.008;4.708;2022-07-10T06:58:41;102762.47;;;20.46;100.00
19831;BME280;10076;52.008;4.708;2022-07-10T07:01:06;102762.44;;;20.57;100.00
19831;BME280;10076;52.008;4.708;2022-07-10T07:03:31;102760.72;;;20.67;100.00
19831;BME280;10076;52.008;4.708;2022-07-10T07:05:56;102765.09;;;20.90;100.00
19831;BME280;10076;52.008;4.708;2022-07-10T07:08:22;102754.03;;;21.04;100.00
19831;BME280;10076;52.008;4.708;2022-07-10T07:10:47;102764.56;;;21.27;100.00
19831;BME280;10076;52.008;4.708;2022-07-10T07:13:12;102764.09;;;21.22;100.00
19831;BME280;10076;52.008;4.708;2022-07-10T07:15:38;102765.84;;;21.12;100.00
19831;BME280;10076;52.008;4.708;2022-07-10T07:18:07;102761.00;;;21.27;100.00
19831;BME280;10076;52.008;4.708;2022-07-10T07:20:34;102764.19;;;21.21;100.00
19831;BME280;10076;52.008;4.708;2022-07-10T07:23:18;102765.66;;;21.25;100.00
19831;BME280;10076;52.008;4.708;2022-07-10T07:25:44;102765.53;;;21.47;100.00
19831;BME280;10076;52.008;4.708;2022-07-10T07:28:12;102761.94;;;21.37;100.00
19831;BME280;10076;52.008;4.708;2022-07-10T07:30:40;102763.25;;;21.42;100.00
19831;BME280;10076;52.008;4.708;2022-07-10T07:33:06;102756.63;;;21.66;100.00
19831;BME280;10076;52.008;4.708;2022-07-10T07:35:31;102755.00;;;21.75;100.00
19831;BME280;10076;52.008;4.708;2022-07-10T07:37:56;102757.72;;;21.84;100.00
19831;BME280;10076;52.008;4.708;2022-07-10T07:40:22;102755.31;;;21.81;100.00
19831;BME280;10076;52.008;4.708;2022-07-10T07:42:49;102754.06;;;21.85;100.00
19831;BME280;10076;52.008;4.708;2022-07-10T07:45:15;102757.72;;;21.84;100.00
19831;BME280;10076;52.008;4.708;2022-07-10T07:50:18;102765.78;;;21.84;100.00
19831;BME280;10076;52.008;4.708;2022-07-10T07:52:44;102772.13;;;21.74;100.00
19831;BME280;10076;52.008;4.708;2022-07-10T07:55:10;102770.88;;;21.57;100.00
19831;BME280;10076;52.008;4.708;2022-07-10T07:57:36;102765.13;;;21.62;100.00
19831;BME280;10076;52.008;4.708;2022-07-10T08:00:03;102778.56;;;21.62;100.00
19831;BME280;10076;52.008;4.708;2022-07-10T08:02:28;102775.97;;;21.81;100.00
19831;BME280;10076;52.008;4.708;2022-07-10T08:04:54;102778.09;;;21.77;100.00
19831;BME280;10076;52.008;4.708;2022-07-10T08:07:19;102774.19;;;21.91;100.00
19831;BME280;10076;52.008;4.708;2022-07-10T08:09:44;102761.59;;;21.91;100.00
19831;BME280;10076;52.008;4.708;2022-07-10T08:12:10;102771.81;;;21.97;100.00
19831;BME280;10076;52.008;4.708;2022-07-10T08:14:35;102772.78;;;21.96;100.00
19831;BME280;10076;52.008;4.708;2022-07-10T08:17:00;102765.91;;;22.03;100.00
19831;BME280;10076;52.008;4.708;2022-07-10T08:19:26;102760.78;;;22.30;100.00
19831;BME280;10076;52.008;4.708;2022-07-10T08:21:51;102773.75;;;22.55;100.00
19831;BME280;10076;52.008;4.708;2022-07-10T08:24:16;102764.88;;;22.64;100.00
19831;BME280;10076;52.008;4.708;2022-07-10T08:26:41;102764.03;;;22.82;100.00
19831;BME280;10076;52.008;4.708;2022-07-10T08:29:07;102761.78;;;22.96;100.00
19831;BME280;10076;52.008;4.708;2022-07-10T08:31:32;102761.25;;;23.02;100.00
19831;BME280;10076;52.008;4.708;2022-07-10T08:33:59;102767.91;;;23.36;100.00
19831;BME280;10076;52.008;4.708;2022-07-10T08:36:24;102768.16;;;23.43;100.00
19831;BME280;10076;52.008;4.708;2022-07-10T08:38:51;102767.31;;;23.52;100.00
19831;BME280;10076;52.008;4.708;2022-07-10T08:41:22;102760.34;;;23.68;100.00
19831;BME280;10076;52.008;4.708;2022-07-10T08:43:49;102762.56;;;23.91;100.00
19831;BME280;10076;52.008;4.708;2022-07-10T08:46:15;102770.44;;;24.12;100.00
19831;BME280;10076;52.008;4.708;2022-07-10T08:48:49;102755.25;;;24.38;100.00
19831;BME280;10076;52.008;4.708;2022-07-10T08:51:24;102756.69;;;24.41;100.00
19831;BME280;10076;52.008;4.708;2022-07-10T08:53:56;102758.56;;;24.58;100.00
19831;BME280;10076;52.008;4.708;2022-07-10T08:56:22;102760.59;;;24.74;100.00
19831;BME280;10076;52.008;4.708;2022-07-10T08:58:49;102757.59;;;24.94;100.00
19831;BME280;10076;52.008;4.708;2022-07-10T09:01:15;102753.28;;;25.18;100.00
19831;BME280;10076;52.008;4.708;2022-07-10T09:03:40;102755.38;;;25.42;100.00
19831;BME280;10076;52.008;4.708;2022-07-10T09:06:06;102756.13;;;25.34;100.00
19831;BME280;10076;52.008;4.708;2022-07-10T09:08:32;102752.88;;;24.79;100.00
19831;BME280;10076;52.008;4.708;2022-07-10T09:11:17;102756.28;;;24.98;100.00
19831;BME280;10076;52.008;4.708;2022-07-10T09:13:53;102745.78;;;24.95;100.00
19831;BME280;10076;52.008;4.708;2022-07-10T09:16:29;102740.44;;;25.03;100.00
19831;BME280;10076;52.008;4.708;2022-07-10T09:18:55;102734.72;;;25.06;100.00
19831;BME280;10076;52.008;4.708;2022-07-10T09:21:22;102733.22;;;25.46;100.00
19831;BME280;10076;52.008;4.708;2022-07-10T09:23:48;102733.69;;;25.84;100.00
19831;BME280;10076;52.008;4.708;2022-07-10T09:26:14;102730.22;;;26.41;100.00
19831;BME280;10076;52.008;4.708;2022-07-10T09:28:39;102728.09;;;26.60;100.00
19831;BME280;10076;52.008;4.708;2022-07-10T09:31:04;102723.88;;;26.66;100.00
19831;BME280;10076;52.008;4.708;2022-07-10T09:33:31;102737.25;;;26.67;100.00
19831;BME280;10076;52.008;4.708;2022-07-10T09:41:29;102738.19;;;27.23;100.00
19831;BME280;10076;52.008;4.708;2022-07-10T09:44:03;102737.31;;;26.83;100.00
19831;BME280;10076;52.008;4.708;2022-07-10T09:46:33;102731.69;;;26.77;100.00
19831;BME280;10076;52.008;4.708;2022-07-10T09:51:46;102734.81;;;26.41;100.00
19831;BME280;10076;52.008;4.708;2022-07-10T09:54:12;102732.63;;;26.52;100.00
19831;BME280;10076;52.008;4.708;2022-07-10T09:56:42;102736.63;;;26.97;100.00
19831;BME280;10076;52.008;4.708;2022-07-10T09:59:18;102725.16;;;27.35;98.55
19831;BME280;10076;52.008;4.708;2022-07-10T10:01:47;102728.53;;;27.13;97.98
19831;BME280;10076;52.008;4.708;2022-07-10T10:04:17;102723.44;;;27.10;98.18
19831;BME280;10076;52.008;4.708;2022-07-10T10:06:45;102719.50;;;26.89;98.67
19831;BME280;10076;52.008;4.708;2022-07-10T10:09:34;102719.72;;;27.27;96.48
19831;BME280;10076;52.008;4.708;2022-07-10T10:12:12;102719.06;;;28.03;93.25
19831;BME280;10076;52.008;4.708;2022-07-10T10:14:41;102727.81;;;28.89;88.56
19831;BME280;10076;52.008;4.708;2022-07-10T10:17:07;102724.72;;;29.37;84.96
19831;BME280;10076;52.008;4.708;2022-07-10T10:19:33;102735.31;;;29.32;81.89
19831;BME280;10076;52.008;4.708;2022-07-10T10:22:18;102731.84;;;29.16;80.12
19831;BME280;10076;52.008;4.708;2022-07-10T10:24:45;102727.78;;;28.97;78.75
19831;BME280;10076;52.008;4.708;2022-07-10T10:27:11;102721.19;;;28.62;79.55
19831;BME280;10076;52.008;4.708;2022-07-10T10:29:37;102719.19;;;28.56;79.65
19831;BME280;10076;52.008;4.708;2022-07-10T10:32:04;102715.84;;;28.98;80.26
19831;BME280;10076;52.008;4.708;2022-07-10T10:34:46;102718.28;;;29.52;77.45
19831;BME280;10076;52.008;4.708;2022-07-10T10:37:36;102719.56;;;29.42;77.75
19831;BME280;10076;52.008;4.708;2022-07-10T10:40:05;102714.38;;;29.84;76.59
19831;BME280;10076;52.008;4.708;2022-07-10T10:42:41;102725.81;;;29.79;74.79
19831;BME280;10076;52.008;4.708;2022-07-10T10:45:31;102726.22;;;29.76;75.16
19831;BME280;10076;52.008;4.708;2022-07-10T10:48:08;102714.84;;;29.87;73.18
19831;BME280;10076;52.008;4.708;2022-07-10T10:50:53;102718.31;;;29.81;74.21
19831;BME280;10076;52.008;4.708;2022-07-10T10:53:28;102713.91;;;29.80;73.74
19831;BME280;10076;52.008;4.708;2022-07-10T10:58:37;102708.28;;;29.96;74.08
19831;BME280;10076;52.008;4.708;2022-07-10T11:01:23;102716.31;;;29.61;73.67
19831;BME280;10076;52.008;4.708;2022-07-10T11:06:39;102711.34;;;30.36;73.46
19831;BME280;10076;52.008;4.708;2022-07-10T11:09:34;102720.66;;;30.77;70.20
19831;BME280;10076;52.008;4.708;2022-07-10T11:12:07;102707.69;;;31.00;71.23
19831;BME280;10076;52.008;4.708;2022-07-10T11:16:59;102707.66;;;31.42;69.34
19831;BME280;10076;52.008;4.708;2022-07-10T11:19:29;102707.41;;;31.98;68.42
19831;BME280;10076;52.008;4.708;2022-07-10T11:25:17;102699.81;;;32.27;64.11
19831;BME280;10076;52.008;4.708;2022-07-10T11:28:07;102709.84;;;32.67;64.04
19831;BME280;10076;52.008;4.708;2022-07-10T11:30:50;102695.22;;;32.40;63.20
19831;BME280;10076;52.008;4.708;2022-07-10T11:33:16;102694.88;;;31.76;62.85
19831;BME280;10076;52.008;4.708;2022-07-10T11:35:46;102695.63;;;31.97;62.49
19831;BME280;10076;52.008;4.708;2022-07-10T11:38:11;102693.31;;;32.34;62.25
19831;BME280;10076;52.008;4.708;2022-07-10T11:40:37;102690.34;;;32.36;61.28
19831;BME280;10076;52.008;4.708;2022-07-10T11:43:03;102686.16;;;32.00;61.46
19831;BME280;10076;52.008;4.708;2022-07-10T11:45:32;102692.47;;;32.40;60.34
19831;BME280;10076;52.008;4.708;2022-07-10T11:47:59;102679.84;;;33.12;58.71
19831;BME280;10076;52.008;4.708;2022-07-10T11:50:26;102678.47;;;33.85;55.80
19831;BME280;10076;52.008;4.708;2022-07-10T11:52:53;102675.53;;;33.74;55.78
19831;BME280;10076;52.008;4.708;2022-07-10T11:55:22;102684.66;;;33.68;55.52
19831;BME280;10076;52.008;4.708;2022-07-10T11:57:48;102676.09;;;34.02;53.18
19831;BME280;10076;52.008;4.708;2022-07-10T12:00:28;102677.56;;;34.11;52.02
19831;BME280;10076;52.008;4.708;2022-07-10T12:02:55;102683.47;;;34.58;51.67
19831;BME280;10076;52.008;4.708;2022-07-10T12:05:35;102684.88;;;35.71;50.23
19831;BME280;10076;52.008;4.708;2022-07-10T12:08:02;102691.91;;;36.85;46.38
19831;BME280;10076;52.008;4.708;2022-07-10T12:10:31;102682.09;;;36.89;45.33
19831;BME280;10076;52.008;4.708;2022-07-10T12:13:07;102673.34;;;36.63;44.88
19831;BME280;10076;52.008;4.708;2022-07-10T12:15:36;102674.16;;;36.05;44.91
19831;BME280;10076;52.008;4.708;2022-07-10T12:18:04;102683.91;;;35.16;45.97
19831;BME280;10076;52.008;4.708;2022-07-10T12:20:29;102672.91;;;34.18;47.36
19831;BME280;10076;52.008;4.708;2022-07-10T12:22:55;102666.59;;;34.11;48.39
19831;BME280;10076;52.008;4.708;2022-07-10T12:25:21;102672.38;;;34.40;47.84
19831;BME280;10076;52.008;4.708;2022-07-10T12:27:47;102667.97;;;35.25;46.88
19831;BME280;10076;52.008;4.708;2022-07-10T12:30:12;102675.91;;;35.82;45.76
19831;BME280;10076;52.008;4.708;2022-07-10T12:32:37;102674.31;;;36.98;44.69
19831;BME280;10076;52.008;4.708;2022-07-10T12:35:03;102672.84;;;37.47;44.39
19831;BME280;10076;52.008;4.708;2022-07-10T12:37:28;102680.47;;;36.82;43.81
19831;BME280;10076;52.008;4.708;2022-07-10T12:39:54;102674.78;;;36.36;44.94
19831;BME280;10076;52.008;4.708;2022-07-10T12:42:29;102673.34;;;36.34;45.88
19831;BME280;10076;52.008;4.708;2022-07-10T12:45:11;102672.50;;;35.62;46.36
19831;BME280;10076;52.008;4.708;2022-07-10T12:47:47;102658.75;;;34.89;47.30
19831;BME280;10076;52.008;4.708;2022-07-10T12:50:15;102661.00;;;34.30;49.34
19831;BME280;10076;52.008;4.708;2022-07-10T12:52:42;102656.94;;;33.89;49.79
19831;BME280;10076;52.008;4.708;2022-07-10T12:57:59;102642.50;;;32.92;52.82
19831;BME280;10076;52.008;4.708;2022-07-10T13:00:29;102652.81;;;32.90;53.40
19831;BME280;10076;52.008;4.708;2022-07-10T13:02:59;102660.47;;;32.34;55.12
19831;BME280;10076;52.008;4.708;2022-07-10T13:10:35;102655.75;;;32.69;55.12
19831;BME280;10076;52.008;4.708;2022-07-10T13:13:04;102654.81;;;32.49;55.58